Bewani Airport


Codes: BWP/BWP
Name: Bewani Airport
City: Bewani
Country: Papua New Guinea
Elevation: 550 ft.

Photos at Bewani Airport


   Photos courtesy of SpottingLog. You can add your own sightings and photos by signing up for a free trial today.



No photos found.

Weather at Bewani Airport


Time (UTC)DescriptionTempratureWindCloud coverageVisibilityPressureHumidity
13-Jun-2024 03:00Light Rain23°C4 mph, E100%10000m1013hPa98%
13-Jun-2024 06:00Light Rain23°C2 mph, SE100%10000m1011hPa95%
13-Jun-2024 09:00Overcast Clouds23°C2 mph, SW100%10000m1011hPa96%
13-Jun-2024 12:00Overcast Clouds23°C2 mph, SW100%10000m1012hPa96%
13-Jun-2024 15:00Overcast Clouds23°C0 mph, SW100%10000m1011hPa94%
13-Jun-2024 18:00Overcast Clouds22°C0 mph, S97%10000m1010hPa95%
13-Jun-2024 21:00Overcast Clouds22°C2 mph, SE86%10000m1011hPa95%
14-Jun-2024 00:00Overcast Clouds28°C2 mph, E93%10000m1012hPa66%
14-Jun-2024 03:00Scattered Clouds32°C2 mph, NE45%10000m1008hPa51%
14-Jun-2024 06:00Light Rain31°C4 mph, NE61%10000m1006hPa59%
14-Jun-2024 09:00Light Rain24°C2 mph, E92%10000m1009hPa97%
14-Jun-2024 12:00Light Rain23°C2 mph, E97%10000m1012hPa98%
14-Jun-2024 15:00Overcast Clouds22°C2 mph, SE100%10000m1011hPa99%
14-Jun-2024 18:00Overcast Clouds22°C0 mph, SW87%10000m1010hPa98%
14-Jun-2024 21:00Broken Clouds22°C2 mph, SW79%10000m1011hPa98%
15-Jun-2024 00:00Light Rain27°C0 mph, E63%10000m1012hPa79%
15-Jun-2024 03:00Moderate Rain27°C4 mph, NE70%5139m1010hPa92%
15-Jun-2024 06:00Moderate Rain25°C2 mph, E85%10000m1009hPa99%
15-Jun-2024 09:00Light Rain23°C2 mph, E100%10000m1010hPa99%
15-Jun-2024 12:00Light Rain23°C2 mph, SE100%10000m1012hPa99%
15-Jun-2024 15:00Light Rain22°C2 mph, S100%10000m1011hPa99%
15-Jun-2024 18:00Overcast Clouds22°C2 mph, S100%10000m1011hPa99%
15-Jun-2024 21:00Overcast Clouds22°C2 mph, S89%10000m1012hPa98%
16-Jun-2024 00:00Overcast Clouds28°C2 mph, S93%10000m1012hPa72%
16-Jun-2024 03:00Light Rain30°C2 mph, NE63%8600m1010hPa64%
16-Jun-2024 06:00Moderate Rain27°C4 mph, E66%8407m1009hPa93%
16-Jun-2024 09:00Light Rain24°C2 mph, E81%10000m1010hPa98%
16-Jun-2024 12:00Light Rain23°C2 mph, E55%10000m1013hPa99%
16-Jun-2024 15:00Broken Clouds22°C2 mph, SE66%10000m1012hPa98%
16-Jun-2024 18:00Broken Clouds22°C2 mph, S56%10000m1011hPa99%
16-Jun-2024 21:00Scattered Clouds22°C2 mph, S25%10000m1012hPa99%
17-Jun-2024 00:00Few Clouds28°C0 mph, SE23%10000m1012hPa73%
17-Jun-2024 03:00Light Rain32°C2 mph, E43%10000m1009hPa56%
17-Jun-2024 06:00Light Rain27°C4 mph, E49%10000m1008hPa90%
17-Jun-2024 09:00Moderate Rain24°C2 mph, E28%10000m1010hPa98%
17-Jun-2024 12:00Light Rain23°C2 mph, E28%5684m1012hPa99%
17-Jun-2024 15:00Light Rain23°C2 mph, SE46%10000m1011hPa99%
17-Jun-2024 18:00Scattered Clouds22°C2 mph, S48%10000m1010hPa98%
17-Jun-2024 21:00Light Rain22°C2 mph, S67%10000m1011hPa98%
18-Jun-2024 00:00Light Rain28°C0 mph, E58%10000m1012hPa78%